^^
Grace C. Lehan Memorial Weather Station Historical Data
Daily Summary for November 28, 2021 Units:  Metric    English   Both
Daily Weekly Monthly Yearly
  High: Low: Average:
Temperature: 1.9 °C -1.1 °C 0.8 °C
Dew Point: 0.2 °C -6.6 °C -2.2 °C
Humidity: 90% 65.8% 80%
Wind Speed: 2.4km/h 0km/h 0.2km/h
Wind Gust: 16.1km/h - -
Wind- - WSW
Pressure: 1012.1 hPa 1008.4 hPa -
Precipitation: 0.25 mm    
 
 
Tabular Data for November 28, 2021
Time Temperature Dew Point Pressure Wind Wind Speed Wind Gust Humidity Rainfall Rate (Hourly) solar
00:04 -1.1 °C -6.6 °C 1011.4 hPa West 0.2 km/h 1.6 km/h 66% 0 mm 0 W/m2
00:09 -1.1 °C -6.6 °C 1011.4 hPa West 0.2 km/h 3.2 km/h 66% 0 mm 0 W/m2
00:14 -1.1 °C -6.4 °C 1011.4 hPa West 0.6 km/h 8 km/h 67% 0 mm 0 W/m2
00:19 -1.1 °C -6.4 °C 1011.4 hPa West 0.8 km/h 8 km/h 67% 0 mm 0 W/m2
00:24 -1.1 °C -6.4 °C 1011.1 hPa West 0.3 km/h 8 km/h 67% 0 mm 0 W/m2
00:29 -1.1 °C -6.4 °C 1011.4 hPa West 0.2 km/h 8 km/h 67% 0 mm 0 W/m2
00:34 -1 °C -6.3 °C 1011.4 hPa West 0.5 km/h 8 km/h 67% 0 mm 0 W/m2
00:39 -0.9 °C -6.3 °C 1011.4 hPa West 0.5 km/h 4.8 km/h 67% 0 mm 0 W/m2
00:44 -0.8 °C -6.2 °C 1011.4 hPa Calm   4.8 km/h 67% 0 mm 0 W/m2
00:49 -0.8 °C -6.1 °C 1011.4 hPa West 0.2 km/h 4.8 km/h 67% 0 mm 0 W/m2
00:54 -0.7 °C -6.1 °C 1011.4 hPa West 0.8 km/h 6.4 km/h 67% 0 mm 0 W/m2
00:59 -0.7 °C -6.1 °C 1011.4 hPa West 1 km/h 9.7 km/h 66.4% 0 mm 0 W/m2
01:00 -0.6 °C -6.2 °C 1011.4 hPa Calm   9.7 km/h 66% 0 mm 0 W/m2
01:30 -0.6 °C -6.1 °C 1011.4 hPa WSW 1.6 km/h 8 km/h 66% 0 mm 0 W/m2
02:00 -0.5 °C -6.1 °C 1011.4 hPa Calm   9.7 km/h 66% 0 mm 0 W/m2
02:30 -0.4 °C -6 °C 1011.7 hPa Calm   9.7 km/h 66% 0 mm 0 W/m2
03:00 -0.7 °C -6.2 °C 1011.4 hPa WSW 1.6 km/h 9.7 km/h 66% 0 mm 0 W/m2
03:30 -0.6 °C -5.9 °C 1011.1 hPa WSW 1.6 km/h 14.5 km/h 67% 0 mm 0 W/m2
04:04 -0.3 °C -5.6 °C 1011.4 hPa WSW 2.3 km/h 14.5 km/h 67% 0 mm 0 W/m2
04:09 -0.2 °C -5.6 °C 1011.4 hPa WSW 2.4 km/h 8 km/h 66.8% 0 mm 0 W/m2
04:14 -0.2 °C -5.7 °C 1011.4 hPa WSW 2.1 km/h 8 km/h 66% 0 mm 0 W/m2
04:19 -0.1 °C -5.7 °C 1011.7 hPa WSW 2.3 km/h 11.3 km/h 65.8% 0 mm 0 W/m2
04:24 -0.1 °C -5.6 °C 1011.7 hPa WSW 1.3 km/h 11.3 km/h 66% 0 mm 0 W/m2
04:29 0 °C -5.6 °C 1011.7 hPa WSW 0.8 km/h 11.3 km/h 66% 0 mm 0 W/m2
04:34 0 °C -5.6 °C 1011.7 hPa WSW 0.2 km/h 11.3 km/h 65.8% 0 mm 0 W/m2
04:39 0.1 °C -5.6 °C 1011.4 hPa WSW 0.6 km/h 4.8 km/h 66% 0 mm 0 W/m2
04:44 0.1 °C -5.6 °C 1011.4 hPa Calm   4.8 km/h 66% 0 mm 0 W/m2
04:49 0.1 °C -5.6 °C 1011.4 hPa WSW 0.3 km/h 4.8 km/h 66% 0 mm 0 W/m2
04:54 0.1 °C -5.6 °C 1011.4 hPa WSW 0.5 km/h 4.8 km/h 66% 0 mm 0 W/m2
04:59 0.1 °C -5.5 °C 1011.4 hPa WSW 1.6 km/h 6.4 km/h 66% 0 mm 0 W/m2
05:04 0.1 °C -5.5 °C 1011.4 hPa WSW 1.4 km/h 8 km/h 66% 0 mm 0 W/m2
05:09 0.2 °C -5.4 °C 1011.4 hPa WSW 0.8 km/h 8 km/h 66% 0 mm 0 W/m2
05:14 0.2 °C -5.4 °C 1011.4 hPa West 1.8 km/h 16.1 km/h 66% 0 mm 0 W/m2
05:19 0.2 °C -5.4 °C 1011.4 hPa West 0.5 km/h 16.1 km/h 66% 0 mm 0 W/m2
05:24 0.2 °C -5.4 °C 1011.4 hPa WSW 0.6 km/h 16.1 km/h 66% 0 mm 0 W/m2
05:29 0.2 °C -5.4 °C 1011.4 hPa WSW 0.8 km/h 16.1 km/h 66% 0 mm 0 W/m2
05:34 0.2 °C -5.4 °C 1011.1 hPa WSW 0.8 km/h 16.1 km/h 66% 0 mm 0 W/m2
05:39 0.2 °C -5.3 °C 1011.1 hPa WSW 1.4 km/h 9.7 km/h 66% 0 mm 0 W/m2
05:44 0.3 °C -5.3 °C 1011.1 hPa WSW 1 km/h 9.7 km/h 66% 0 mm 0 W/m2
05:49 0.3 °C -5.2 °C 1011.1 hPa WSW 1.1 km/h 9.7 km/h 66.6% 0 mm 0 W/m2
05:54 0.3 °C -5.3 °C 1011.1 hPa SW 1.1 km/h 9.7 km/h 66.3% 0 mm 0 W/m2
05:59 0.3 °C -5.2 °C 1011.1 hPa SW 0.6 km/h 9.7 km/h 66.5% 0 mm 0 W/m2
06:04 0.3 °C -5.1 °C 1011.1 hPa SW 1.1 km/h 11.3 km/h 67.1% 0 mm 0 W/m2
06:09 0.3 °C -4.9 °C 1011.1 hPa SW 2.3 km/h 11.3 km/h 68% 0 mm 0 W/m2
06:14 0.3 °C -4.7 °C 1011.1 hPa SW 0.5 km/h 11.3 km/h 68.6% 0 mm 0 W/m2
06:19 0.3 °C -4.5 °C 1011.1 hPa SW 0.5 km/h 11.3 km/h 69.9% 0 mm 0 W/m2
06:24 0.3 °C -4.4 °C 1011.4 hPa SW 0.6 km/h 11.3 km/h 70.4% 0 mm 0 W/m2
06:29 0.3 °C -4.3 °C 1011.1 hPa SW 0.3 km/h 11.3 km/h 71% 0 mm 0 W/m2
06:34 0.2 °C -4.4 °C 1011.1 hPa Calm   11.3 km/h 71.2% 0 mm 0 W/m2
06:39 0.2 °C -4.3 °C 1011.1 hPa SW 0.2 km/h 3.2 km/h 71.4% 0 mm 0 W/m2
06:44 0.2 °C -4.2 °C 1011.4 hPa Calm   3.2 km/h 72% 0 mm 0 W/m2
06:49 0.2 °C -4.3 °C 1011.4 hPa Calm   3.2 km/h 72% 0 mm 0 W/m2
06:54 0.2 °C -4.3 °C 1011.4 hPa Calm   3.2 km/h 72% 0 mm 0 W/m2
06:59 0.2 °C -4.3 °C 1011.4 hPa SW 0.6 km/h 9.7 km/h 72% 0 mm 0 W/m2
07:04 0.2 °C -4.2 °C 1011.4 hPa SW 0.3 km/h 9.7 km/h 72% 0 mm 0 W/m2
07:09 0.2 °C -4.2 °C 1011.4 hPa Calm   3.2 km/h 72% 0 mm 5 W/m2
07:14 0.2 °C -4.1 °C 1011.7 hPa Calm   3.2 km/h 72.4% 0 mm 11 W/m2
07:19 0.3 °C -4.1 °C 1011.7 hPa SW 0.2 km/h 3.2 km/h 72.2% 0 mm 18 W/m2
07:24 0.3 °C -4.2 °C 1011.4 hPa SW 0.8 km/h 4.8 km/h 72.2% 0 mm 23 W/m2
07:29 0.3 °C -4.1 °C 1011.7 hPa Calm   4.8 km/h 72.4% 0 mm 30 W/m2
07:34 0.3 °C -4 °C 1011.7 hPa Calm   4.8 km/h 72.7% 0 mm 35 W/m2
07:39 0.3 °C -3.9 °C 1011.7 hPa Calm     73.1% 0 mm 39 W/m2
07:44 0.4 °C -3.7 °C 1011.7 hPa SW 0.6 km/h 4.8 km/h 74% 0 mm 46 W/m2
07:49 0.4 °C -3.7 °C 1011.7 hPa Calm   4.8 km/h 74% 0 mm 44 W/m2
07:54 0.4 °C -3.7 °C 1011.7 hPa Calm   4.8 km/h 74% 0 mm 46 W/m2
07:59 0.5 °C -3.6 °C 1011.7 hPa Calm   4.8 km/h 74.2% 0 mm 88 W/m2
08:04 0.6 °C -3.3 °C 1011.7 hPa Calm     75% 0 mm 90 W/m2
08:09 0.6 °C -3.3 °C 1011.7 hPa Calm     75% 0 mm 90 W/m2
08:14 0.7 °C -3.2 °C 1011.7 hPa Calm     75% 0 mm 95 W/m2
08:19 0.7 °C -3.1 °C 1011.7 hPa Calm     75.8% 0 mm 86 W/m2
08:24 0.8 °C -3.1 °C 1011.7 hPa SW 0.3 km/h 6.4 km/h 75.7% 0 mm 86 W/m2
08:29 0.8 °C -3.1 °C 1011.7 hPa Calm   6.4 km/h 75.1% 0 mm 83 W/m2
08:34 0.8 °C -3 °C 1011.7 hPa Calm   6.4 km/h 75.8% 0 mm 83 W/m2
08:39 0.8 °C -3.1 °C 1011.7 hPa Calm     75% 0 mm 90 W/m2
08:44 0.8 °C -2.9 °C 1011.7 hPa Calm     76% 0 mm 104 W/m2
08:49 0.9 °C -2.8 °C 1011.7 hPa Calm     76% 0 mm 113 W/m2
08:54 0.9 °C -2.8 °C 1011.7 hPa Calm     76% 0 mm 116 W/m2
08:59 1 °C -2.8 °C 1011.7 hPa Calm     76% 0 mm 114 W/m2
09:04 1 °C -2.6 °C 1012.1 hPa Calm     77.2% 0 mm 128 W/m2
09:09 1.1 °C -2.7 °C 1012.1 hPa Calm     76% 0 mm 135 W/m2
09:14 1.1 °C -2.7 °C 1012.1 hPa Calm     76% 0 mm 134 W/m2
09:19 1.1 °C -2.7 °C 1012.1 hPa Calm     76% 0 mm 134 W/m2
09:24 1.2 °C -2.6 °C 1012.1 hPa Calm     76% 0 mm 134 W/m2
09:29 1.2 °C -2.6 °C 1012.1 hPa Calm     76% 0 mm 111 W/m2
09:34 1.2 °C -2.5 °C 1012.1 hPa Calm     76% 0 mm 93 W/m2
09:39 1.3 °C -2.5 °C 1012.1 hPa SW 0.2 km/h 4.8 km/h 76% 0 mm 74 W/m2
09:44 1.3 °C -2.4 °C 1012.1 hPa Calm   4.8 km/h 76% 0 mm 63 W/m2
09:49 1.3 °C -2.3 °C 1012.1 hPa Calm   4.8 km/h 76.7% 0 mm 65 W/m2
09:54 1.2 °C -2.3 °C 1012.1 hPa Calm   4.8 km/h 77.3% 0 mm 65 W/m2
09:59 1.2 °C -2.2 °C 1012.1 hPa Calm   4.8 km/h 78.1% 0 mm 74 W/m2
10:04 1.2 °C -2 °C 1012.1 hPa Calm   4.8 km/h 79% 0 mm 74 W/m2
10:09 1.2 °C -2.1 °C 1012.1 hPa Calm     78.8% 0 mm 65 W/m2
10:14 1.2 °C -2.1 °C 1012.1 hPa Calm     79% 0 mm 56 W/m2
10:19 1.2 °C -1.9 °C 1012.1 hPa Calm     79.6% 0 mm 54 W/m2
10:24 1.2 °C -1.9 °C 1011.7 hPa Calm     79.6% 0 mm 56 W/m2
10:29 1.2 °C -1.9 °C 1011.7 hPa Calm     80% 0 mm 62 W/m2
10:34 1.1 °C -2 °C 1011.7 hPa Calm     80% 0 mm 81 W/m2
10:39 1.1 °C -1.8 °C 1011.7 hPa SW 0.6 km/h 6.4 km/h 80.8% 0 mm 88 W/m2
10:44 1.1 °C -1.8 °C 1011.7 hPa Calm   6.4 km/h 81% 0 mm 104 W/m2
10:49 1.2 °C -1.7 °C 1011.7 hPa Calm   6.4 km/h 81% 0 mm 116 W/m2
10:54 1.2 °C -1.7 °C 1011.7 hPa SW 1 km/h 6.4 km/h 81% 0 mm 120 W/m2
10:59 1.2 °C -1.6 °C 1011.7 hPa Calm   6.4 km/h 81.7% 0 mm 123 W/m2
11:04 1.2 °C -1.5 °C 1011.4 hPa Calm   6.4 km/h 82.5% 0 mm 104 W/m2
11:09 1.1 °C -1.4 °C 1011.4 hPa Calm   1.6 km/h 83.1% 0 mm 81 W/m2
11:14 1.1 °C -1.3 °C 1011.4 hPa Calm   1.6 km/h 84.1% 0 mm 69 W/m2
11:19 1.1 °C -1.2 °C 1011.1 hPa Calm   1.6 km/h 85% 0 mm 102 W/m2
11:24 1.1 °C -1.1 °C 1011.1 hPa Calm   1.6 km/h 85.4% 0 mm 104 W/m2
11:29 1.1 °C -1 °C 1011.1 hPa Calm   1.6 km/h 86% 0 mm 88 W/m2
11:34 1.1 °C -1.1 °C 1011.1 hPa Calm   1.6 km/h 86% 0 mm 77 W/m2
11:39 0.9 °C -0.8 °C 1011.1 hPa Calm     88% 0 mm 69 W/m2
11:44 0.9 °C -1 °C 1011.1 hPa Calm     86.8% 0 mm 60 W/m2
11:49 0.9 °C -1 °C 1010.7 hPa Calm     87% 0 mm 67 W/m2
11:54 0.8 °C -1.1 °C 1010.7 hPa Calm     87% 0 mm 69 W/m2
11:59 0.8 °C -1 °C 1010.7 hPa Calm     87.7% 0 mm 74 W/m2
12:00 0.8 °C -1 °C 1010.7 hPa Calm     88% 0 mm 65 W/m2
12:09 0.7 °C -1 °C 1010.7 hPa Calm     88% 0 mm 74 W/m2
12:14 0.7 °C -1.1 °C 1010.7 hPa Calm     88% 0 mm 51 W/m2
12:19 0.7 °C -1.1 °C 1010.4 hPa Calm     88% 0 mm 53 W/m2
12:24 0.6 °C -1.2 °C 1010.4 hPa Calm     88% 0 mm 53 W/m2
12:29 0.6 °C -1.1 °C 1010.4 hPa Calm     88.2% 0 mm 53 W/m2
12:34 0.6 °C -1.1 °C 1010.4 hPa Calm     88.6% 0 mm 51 W/m2
12:39 0.7 °C -0.9 °C 1010.4 hPa Calm     89% 0 mm 39 W/m2
12:44 0.7 °C -0.9 °C 1010.4 hPa Calm     89% 0 mm 39 W/m2
12:49 0.7 °C -0.9 °C 1010.4 hPa Calm     89% 0 mm 46 W/m2
12:54 0.7 °C -0.9 °C 1010.4 hPa Calm     89% 0 mm 46 W/m2
12:59 0.7 °C -0.9 °C 1010.4 hPa Calm     89% 0 mm 54 W/m2
13:04 0.7 °C -0.9 °C 1010.4 hPa Calm     89% 0 mm 54 W/m2
13:09 0.8 °C -0.8 °C 1010 hPa Calm     88.8% 0 mm 63 W/m2
13:14 0.8 °C -0.9 °C 1010 hPa Calm     88% 0 mm 63 W/m2
13:19 0.8 °C -0.9 °C 1010 hPa Calm     88% 0 mm 60 W/m2
13:24 0.8 °C -1 °C 1010 hPa Calm     87.5% 0 mm 54 W/m2
13:29 0.8 °C -1.1 °C 1010 hPa Calm     87% 0 mm 62 W/m2
13:34 0.9 °C -1 °C 1010 hPa Calm     87% 0 mm 62 W/m2
13:39 0.9 °C -1 °C 1010 hPa Calm     87% 0.25 mm 56 W/m2
13:44 1 °C -0.8 °C 1010 hPa Calm     87.5% 0.25 mm 51 W/m2
13:49 1.1 °C -0.8 °C 1010 hPa Calm     87% 0.25 mm 49 W/m2
13:54 1.2 °C -0.8 °C 1010 hPa Calm     87% 0.25 mm 44 W/m2
13:59 1.2 °C -0.7 °C 1009.7 hPa Calm     87% 0.25 mm 42 W/m2
14:04 1.3 °C -0.7 °C 1009.7 hPa Calm     87% 0.25 mm 42 W/m2
14:09 1.3 °C -0.7 °C 1009.7 hPa Calm     86.7% 0.25 mm 51 W/m2
14:14 1.3 °C -0.8 °C 1009.7 hPa Calm     86% 0.25 mm 51 W/m2
14:19 1.3 °C -0.8 °C 1009.7 hPa Calm     86% 0.25 mm 46 W/m2
14:24 1.3 °C -0.8 °C 1009.4 hPa Calm     86% 0.25 mm 42 W/m2
14:29 1.3 °C -0.7 °C 1009.4 hPa Calm     86% 0.25 mm 30 W/m2
14:34 1.4 °C -0.7 °C 1009.4 hPa Calm     86% 0.25 mm 28 W/m2
14:39 1.4 °C -0.7 °C 1009.4 hPa Calm     86% 0.25 mm 23 W/m2
14:44 1.4 °C -0.7 °C 1009.4 hPa Calm     86% 0.25 mm 21 W/m2
14:49 1.3 °C -0.9 °C 1009.4 hPa Calm     85.1% 0.25 mm 23 W/m2
14:54 1.3 °C -0.9 °C 1009.4 hPa Calm     85% 0.25 mm 19 W/m2
14:59 1.3 °C -0.9 °C 1009.4 hPa Calm     85.5% 0.25 mm 14 W/m2
15:04 1.3 °C -0.8 °C 1009 hPa Calm     86% 0.25 mm 19 W/m2
15:09 1.3 °C -0.7 °C 1009 hPa Calm     86% 0 mm 23 W/m2
15:14 1.3 °C -0.7 °C 1009 hPa Calm     86% 0 mm 23 W/m2
15:19 1.4 °C -0.7 °C 1009 hPa Calm     86% 0 mm 16 W/m2
15:24 1.4 °C -0.7 °C 1009 hPa Calm     86% 0 mm 14 W/m2
15:29 1.4 °C -0.6 °C 1009 hPa Calm     86% 0 mm 14 W/m2
15:34 1.4 °C -0.7 °C 1009 hPa Calm     85.8% 0 mm 11 W/m2
15:39 1.4 °C -0.8 °C 1009 hPa Calm     85% 0 mm 9 W/m2
15:44 1.4 °C -0.8 °C 1009 hPa Calm     85% 0 mm 5 W/m2
15:49 1.4 °C -0.8 °C 1009.4 hPa Calm     85% 0 mm 5 W/m2
15:54 1.4 °C -0.7 °C 1009.4 hPa Calm     85.7% 0 mm 5 W/m2
15:59 1.5 °C -0.7 °C 1009.4 hPa Calm     85.6% 0 mm 5 W/m2
16:00 1.5 °C -0.6 °C 1009 hPa Calm     86% 0 mm 0 W/m2
16:09 1.5 °C -0.7 °C 1009 hPa Calm     85.4% 0 mm 0 W/m2
16:14 1.5 °C -0.8 °C 1009 hPa Calm     85% 0 mm 0 W/m2
16:19 1.5 °C -0.8 °C 1009 hPa Calm     85% 0 mm 0 W/m2
16:24 1.4 °C -0.7 °C 1009 hPa Calm     85.6% 0 mm 0 W/m2
16:29 1.4 °C -0.6 °C 1009.4 hPa Calm     85.9% 0 mm 0 W/m2
16:34 1.4 °C -0.6 °C 1009.4 hPa Calm     86% 0 mm 0 W/m2
16:39 1.5 °C -0.6 °C 1009.4 hPa Calm     86% 0 mm 0 W/m2
16:44 1.5 °C -0.6 °C 1009.4 hPa Calm     86% 0 mm 0 W/m2
16:49 1.5 °C -0.6 °C 1009.4 hPa Calm     86% 0 mm 0 W/m2
16:54 1.5 °C -0.6 °C 1009.4 hPa Calm     86% 0 mm 0 W/m2
16:59 1.4 °C -0.6 °C 1009.4 hPa Calm     86% 0 mm 0 W/m2
17:04 1.4 °C -0.6 °C 1009.4 hPa Calm     86% 0 mm 0 W/m2
17:09 1.4 °C -0.5 °C 1009.4 hPa Calm     87% 0 mm 0 W/m2
17:14 1.4 °C -0.2 °C 1009.4 hPa Calm     89% 0 mm 0 W/m2
17:19 1.4 °C -0.7 °C 1009.4 hPa Calm     86% 0 mm 0 W/m2
17:24 1.4 °C -0.7 °C 1009.7 hPa Calm     86.3% 0 mm 0 W/m2
17:29 1.4 °C -0.6 °C 1009.7 hPa Calm     87% 0 mm 0 W/m2
17:34 1.4 °C -0.6 °C 1009.7 hPa Calm     87% 0 mm 0 W/m2
17:39 1.4 °C -0.5 °C 1010 hPa Calm     87% 0 mm 0 W/m2
17:44 1.4 °C -0.5 °C 1010 hPa Calm     87% 0 mm 0 W/m2
17:49 1.4 °C -0.5 °C 1009.7 hPa Calm     87% 0 mm 0 W/m2
18:00 1.4 °C -0.5 °C 1010 hPa Calm     87% 0 mm 0 W/m2
18:30 1.4 °C -0.5 °C 1010 hPa Calm     87% 0 mm 0 W/m2
19:00 1.4 °C -0.5 °C 1010 hPa Calm     87% 0 mm 0 W/m2
19:30 1.4 °C -0.5 °C 1010 hPa Calm     87% 0 mm 0 W/m2
20:04 1.4 °C -0.4 °C 1010 hPa Calm     88% 0 mm 0 W/m2
20:09 1.5 °C -0.3 °C 1010 hPa Calm     88% 0 mm 0 W/m2
20:14 1.6 °C 0 °C 1010 hPa Calm     89% 0 mm 0 W/m2
20:19 1.7 °C 0.1 °C 1009.7 hPa Calm     89% 0 mm 0 W/m2
20:24 1.8 °C 0.2 °C 1009.7 hPa Calm     89% 0 mm 0 W/m2
20:29 1.8 °C 0.2 °C 1009.7 hPa Calm     89% 0 mm 0 W/m2
20:34 1.8 °C 0.2 °C 1010 hPa Calm     89% 0 mm 0 W/m2
20:39 1.8 °C 0.1 °C 1010 hPa Calm     88.3% 0 mm 0 W/m2
20:44 1.8 °C 0 °C 1010 hPa Calm     88% 0 mm 0 W/m2
20:49 1.8 °C 0.1 °C 1010 hPa Calm     88% 0 mm 0 W/m2
20:54 1.9 °C 0.1 °C 1009.7 hPa Calm     88% 0 mm 0 W/m2
20:59 1.9 °C 0.2 °C 1009.7 hPa Calm     87.9% 0 mm 0 W/m2
21:04 1.9 °C 0 °C 1010 hPa Calm     87% 0 mm 0 W/m2
21:09 1.9 °C -0.1 °C 1009.7 hPa Calm     87% 0 mm 0 W/m2
21:14 1.8 °C -0.1 °C 1009.7 hPa Calm     87.3% 0 mm 0 W/m2
21:19 1.7 °C -0.3 °C 1009.7 hPa Calm     86.2% 0 mm 0 W/m2
21:24 1.7 °C -0.3 °C 1009.4 hPa Calm     87% 0 mm 0 W/m2
21:29 1.6 °C -0.3 °C 1009.4 hPa Calm     87% 0 mm 0 W/m2
21:34 1.6 °C -0.4 °C 1009.4 hPa Calm     87% 0 mm 0 W/m2
21:39 1.5 °C -0.4 °C 1009.4 hPa Calm     87% 0 mm 0 W/m2
21:44 1.4 °C -0.5 °C 1009.4 hPa Calm     87% 0 mm 0 W/m2
21:49 1.4 °C -0.4 °C 1009.4 hPa Calm     87.6% 0 mm 0 W/m2
21:54 1.3 °C -0.4 °C 1009.4 hPa Calm     88% 0 mm 0 W/m2
21:59 1.3 °C -0.4 °C 1009.4 hPa Calm     88% 0 mm 0 W/m2
22:04 1.3 °C -0.4 °C 1009.4 hPa Calm     88% 0 mm 0 W/m2
22:09 1.3 °C -0.5 °C 1009.4 hPa Calm     88% 0 mm 0 W/m2
22:14 1.3 °C -0.5 °C 1009 hPa Calm     88% 0 mm 0 W/m2
22:19 1.2 °C -0.5 °C 1009.4 hPa Calm     88% 0 mm 0 W/m2
22:24 1.2 °C -0.6 °C 1009.4 hPa Calm     88% 0 mm 0 W/m2
22:29 1.2 °C -0.6 °C 1009 hPa Calm     88% 0 mm 0 W/m2
22:34 1.2 °C -0.6 °C 1009 hPa Calm     88% 0 mm 0 W/m2
22:38 1.2 °C -0.6 °C 1008.7 hPa Calm     88.5% 0 mm 0 W/m2
23:04 0.9 °C -0.7 °C 1008.7 hPa Calm     89% 0 mm 0 W/m2
23:09 0.9 °C -0.7 °C 1008.7 hPa Calm     89% 0 mm 0 W/m2
23:14 0.9 °C -0.7 °C 1009 hPa Calm     89% 0 mm 0 W/m2
23:19 0.8 °C -0.8 °C 1009 hPa Calm     89% 0 mm 0 W/m2
23:24 0.8 °C -0.8 °C 1008.7 hPa Calm     89% 0 mm 0 W/m2
23:29 0.8 °C -0.7 °C 1009 hPa Calm     89.9% 0 mm 0 W/m2
23:34 0.8 °C -0.7 °C 1009 hPa Calm     90% 0 mm 0 W/m2
23:39 0.7 °C -0.7 °C 1009 hPa Calm     90% 0 mm 0 W/m2
23:44 0.7 °C -0.7 °C 1008.7 hPa Calm     90% 0 mm 0 W/m2
23:49 0.7 °C -0.8 °C 1008.7 hPa Calm     90% 0 mm 0 W/m2
23:54 0.7 °C -0.8 °C 1008.7 hPa Calm     90% 0 mm 0 W/m2
23:59 0.6 °C -0.8 °C 1008.4 hPa Calm     90% 0 mm 0 W/m2
Hartford County Weather
Compliments of Weather Underground - 4 mb